Time;durP1;ratioP1;P1;durP2;ratioP2;P2;SDS_P1;SDS_P2;PMS_P1;PMS_P2;Temp;Humidity;BMP_temperature;BMP_pressure;BME280_temperature;BME280_humidity;BME280_pressure;Samples;Min_cycle;Max_cycle;Signal;HPM_P1;HPM_P2
2022/02/07 00:02:26;;;;;;;0.90;0.90;;;7.90;73.40;;;6.88;59.30;93235.06;6106419;23;20196;-84
2022/02/07 00:04:55;;;;;;;0.90;0.90;;;7.80;73.40;;;6.86;58.92;93229.25;6106498;23;20252;-84
2022/02/07 00:07:22;;;;;;;0.82;0.82;;;7.80;73.60;;;6.79;58.93;93222.50;6105975;23;20185;-84
2022/02/07 00:09:50;;;;;;;0.80;0.80;;;7.80;73.80;;;6.78;59.83;93224.28;6105445;23;20204;-84
2022/02/07 00:12:17;;;;;;;1.13;1.02;;;7.70;74.30;;;6.72;60.08;93219.91;6105865;23;20235;-84
2022/02/07 00:14:46;;;;;;;0.90;0.90;;;7.70;74.20;;;6.67;60.46;93230.16;6105957;23;20288;-84
2022/02/07 00:17:13;;;;;;;0.80;0.80;;;7.60;74.20;;;6.58;60.53;93200.97;6129904;23;20178;-83
2022/02/07 00:19:40;;;;;;;0.90;0.90;;;7.60;74.20;;;6.54;60.22;93179.75;6106152;23;20239;-84
2022/02/07 00:22:08;;;;;;;0.82;0.82;;;7.60;74.20;;;6.58;60.24;93195.75;6105065;23;20178;-83
2022/02/07 00:24:35;;;;;;;0.80;0.80;;;7.50;74.10;;;6.55;60.42;93199.59;6105803;23;20193;-83
2022/02/07 00:27:02;;;;;;;0.82;0.82;;;7.50;74.10;;;6.54;59.82;93204.97;6082390;23;20281;-84
2022/02/07 00:29:30;;;;;;;0.90;0.90;;;7.50;74.10;;;6.49;59.46;93203.00;6081982;23;20193;-84
2022/02/07 00:31:57;;;;;;;1.48;0.80;;;7.40;74.00;;;6.50;60.29;93222.81;6130270;23;20180;-84
2022/02/07 00:34:24;;;;;;;2.00;0.90;;;7.40;74.00;;;6.49;60.09;93210.03;6130270;23;20255;-84
2022/02/07 00:36:52;;;;;;;0.98;0.98;;;7.40;74.00;;;6.48;60.05;93204.03;6105646;23;20178;-84
2022/02/07 00:39:28;;;;;;;0.80;0.80;;;7.50;74.20;;;6.41;59.85;93192.84;6105455;23;20222;-84
2022/02/07 00:42:02;;;;;;;1.00;0.80;;;7.40;74.10;;;6.48;59.50;93182.38;6105657;23;20417;-84
2022/02/07 00:44:29;;;;;;;0.90;0.90;;;7.30;74.10;;;6.43;60.86;93177.00;6106007;23;20197;-85
2022/02/07 00:46:58;;;;;;;0.85;0.85;;;7.30;74.60;;;6.47;60.33;93173.78;6130134;23;20182;-85
2022/02/07 00:49:26;;;;;;;1.00;1.00;;;7.30;74.40;;;6.45;60.59;93177.59;6130112;23;20302;-85
2022/02/07 00:51:55;;;;;;;1.00;0.80;;;7.30;74.50;;;6.47;59.68;93192.00;6106425;23;20521;-84
2022/02/07 00:54:23;;;;;;;0.93;0.93;;;7.30;74.30;;;6.46;60.64;93181.78;6129747;23;20586;-84
2022/02/07 00:56:50;;;;;;;0.80;0.80;;;7.30;74.80;;;6.44;60.98;93176.78;6082119;23;20178;-83
2022/02/07 00:59:17;;;;;;;0.90;0.90;;;7.30;74.90;;;6.46;60.22;93166.16;6104949;23;20201;-84
2022/02/07 01:01:47;;;;;;;0.90;0.90;;;7.30;75.50;;;6.47;60.00;93170.34;6105978;23;20173;-84
2022/02/07 01:04:15;;;;;;;0.80;0.80;;;7.30;74.70;;;6.45;59.92;93160.16;6082252;23;20202;-84
2022/02/07 01:07:03;;;;;;;0.90;0.90;;;7.20;74.70;;;6.47;60.32;93163.34;6154337;23;20696;-84
2022/02/07 01:09:40;;;;;;;1.00;0.90;;;7.20;74.60;;;6.47;60.53;93176.38;6129502;23;20280;-84
2022/02/07 01:12:53;;;;;;;1.00;1.00;;;7.30;75.00;;;6.48;60.64;93179.78;6107565;23;20200;-84
2022/02/07 01:56:36;;;;;;;0.80;0.80;;;7.30;75.20;;;6.55;60.61;93144.88;6106238;23;20169;-83
2022/02/07 01:59:05;;;;;;;0.95;0.95;;;7.30;75.20;;;6.53;61.24;93157.31;6105039;23;20202;-84
2022/02/07 02:01:37;;;;;;;0.70;0.70;;;7.30;75.20;;;6.51;61.51;93155.94;6106435;23;20193;-83
2022/02/07 02:04:05;;;;;;;0.90;0.90;;;7.30;75.40;;;6.51;61.79;93161.13;6105775;23;20500;-83
2022/02/07 02:06:34;;;;;;;0.80;0.80;;;7.30;75.60;;;6.46;61.72;93153.94;6105524;23;20186;-84
2022/02/07 02:09:09;;;;;;;0.70;0.70;;;7.40;75.70;;;6.46;61.76;93132.28;6107776;23;20240;-84
2022/02/07 02:11:40;;;;;;;0.90;0.90;;;7.30;75.70;;;6.38;61.51;93118.53;6081592;23;20165;-83
2022/02/07 02:17:02;;;;;;;0.98;0.90;;;7.30;75.80;;;6.37;62.31;93116.94;6129150;23;20189;-84
2022/02/07 02:36:32;;;;;;;0.90;0.90;;;7.10;75.90;;;6.15;62.25;93188.56;6129001;23;20178;-83
2022/02/07 02:47:30;;;;;;;0.90;0.90;;;7.00;76.20;;;6.01;62.72;93250.28;6131017;23;20600;-84
2022/02/07 02:50:15;;;;;;;1.58;0.93;;;6.90;76.20;;;5.96;63.35;93261.25;6108082;23;20197;-83
2022/02/07 02:52:43;;;;;;;1.00;1.00;;;6.90;76.40;;;5.89;63.26;93257.88;6106894;23;20208;-83
2022/02/07 02:55:10;;;;;;;0.93;0.93;;;6.90;76.40;;;5.83;63.82;93248.28;6130389;23;20213;-83
2022/02/07 02:57:39;;;;;;;0.80;0.80;;;6.80;76.50;;;5.72;64.43;93247.88;6106571;23;20239;-83
2022/02/07 03:00:08;;;;;;;0.98;0.98;;;6.80;76.70;;;5.72;64.29;93260.09;6106627;23;20667;-83
2022/02/07 03:02:36;;;;;;;0.90;0.90;;;6.80;76.80;;;5.70;63.69;93256.91;6131564;23;20235;-82
2022/02/07 03:05:04;;;;;;;1.20;1.10;;;6.70;76.70;;;5.71;63.92;93258.50;6106864;23;20195;-82
2022/02/07 03:07:32;;;;;;;0.90;0.90;;;6.70;76.80;;;5.68;63.93;93270.13;6106469;23;20185;-82
2022/02/07 03:10:01;;;;;;;0.93;0.93;;;6.70;77.70;;;5.64;63.67;93275.91;6130557;23;20221;-83
2022/02/07 03:12:32;;;;;;;1.00;1.00;;;6.60;76.80;;;5.69;63.43;93291.72;6106431;23;20646;-82
2022/02/07 03:16:36;;;;;;;1.05;1.00;;;6.60;76.80;;;5.61;64.01;93288.34;6106291;23;20220;-83
2022/02/07 03:17:46;;;;;;;1.00;0.90;;;6.60;76.90;;;5.65;64.36;93303.53;6109630;23;20193;-83
2022/02/07 03:20:14;;;;;;;1.00;1.00;;;6.60;77.00;;;5.65;64.05;93312.16;6106617;23;20195;-83
2022/02/07 03:22:42;;;;;;;0.93;0.93;;;6.50;76.90;;;5.66;63.83;93324.13;6106736;23;20201;-82
2022/02/07 03:25:09;;;;;;;1.00;1.00;;;6.60;77.00;;;5.67;63.78;93330.94;6130553;23;20197;-83
2022/02/07 03:27:43;;;;;;;1.00;1.00;;;6.50;76.90;;;5.59;63.83;93324.16;6130174;23;20173;-82
2022/02/07 03:30:22;;;;;;;1.00;1.00;;;6.60;77.10;;;5.62;63.92;93330.75;6108631;23;20189;-83
2022/02/07 03:32:52;;;;;;;1.00;1.00;;;6.50;77.00;;;5.63;63.75;93329.75;6130594;23;20230;-83
2022/02/07 03:35:20;;;;;;;0.90;0.90;;;6.50;77.00;;;5.61;63.71;93331.75;6106440;23;20789;-82
2022/02/07 03:37:48;;;;;;;0.80;0.80;;;6.50;77.10;;;5.62;64.36;93338.53;6107168;23;20185;-83
2022/02/07 03:40:17;;;;;;;0.93;0.93;;;6.50;77.20;;;5.60;63.94;93341.34;6106775;23;20193;-82
2022/02/07 03:42:46;;;;;;;0.85;0.85;;;6.50;77.10;;;5.56;63.74;93337.53;6106414;23;20181;-82
2022/02/07 03:45:13;;;;;;;1.10;1.00;;;6.50;77.10;;;5.59;63.70;93355.34;6082601;23;20216;-82
2022/02/07 03:47:49;;;;;;;0.90;0.90;;;6.50;77.20;;;5.57;64.09;93353.97;6154430;23;20181;-82
2022/02/07 03:50:21;;;;;;;1.00;1.00;;;6.50;77.20;;;5.51;64.10;93393.75;6107346;23;20212;-82
2022/02/07 03:52:53;;;;;;;0.90;0.90;;;6.50;77.30;;;5.45;63.92;93403.94;6130277;23;20201;-82
2022/02/07 03:55:23;;;;;;;1.00;1.00;;;6.40;77.20;;;5.41;64.02;93412.34;6083569;23;20287;-83
2022/02/07 03:57:54;;;;;;;1.00;0.98;;;6.30;77.10;;;5.33;63.91;93430.72;6106153;23;20178;-83
2022/02/07 04:00:23;;;;;;;1.08;0.90;;;6.30;77.20;;;5.28;64.17;93423.50;6129879;23;20628;-82
2022/02/07 04:03:07;;;;;;;1.00;1.00;;;6.20;77.10;;;5.18;63.99;93412.69;6108911;23;20181;-83
2022/02/07 04:05:55;;;;;;;1.02;0.90;;;6.20;77.20;;;5.17;63.64;93444.88;6129880;23;20193;-81
2022/02/07 04:08:36;;;;;;;0.90;0.90;;;6.10;77.00;;;5.15;64.18;93452.06;6154860;23;20247;-83
2022/02/07 04:13:49;;;;;;;0.80;0.80;;;6.00;77.10;;;5.10;63.75;93495.03;6107232;23;20239;-83
2022/02/07 04:16:18;;;;;;;0.90;0.90;;;6.00;77.00;;;5.06;63.82;93529.38;6106950;23;20193;-82
2022/02/07 04:21:23;;;;;;;1.05;1.00;;;6.00;77.10;;;5.03;63.33;93512.38;6107187;23;20482;-84
2022/02/07 04:23:53;;;;;;;0.80;0.80;;;5.90;76.90;;;5.01;63.24;93527.34;6106386;23;20620;-83
2022/02/07 04:26:41;;;;;;;0.80;0.80;;;5.90;76.80;;;5.00;63.67;93528.34;6118471;23;20205;-83
2022/02/07 04:29:09;;;;;;;0.93;0.93;;;5.90;76.80;;;4.99;63.62;93528.53;6129627;23;20193;-83
2022/02/07 04:31:38;;;;;;;0.90;0.90;;;5.90;76.80;;;4.96;63.17;93524.53;6082461;23;20562;-83
2022/02/07 04:34:08;;;;;;;0.80;0.80;;;5.80;76.70;;;4.88;63.18;93532.47;6106150;23;20201;-83
2022/02/07 04:36:35;;;;;;;1.05;1.00;;;5.80;76.70;;;4.93;63.43;93545.69;6105524;23;20178;-82
2022/02/07 04:39:03;;;;;;;1.00;1.00;;;5.80;76.70;;;4.91;63.26;93534.72;6129895;23;20712;-83
2022/02/07 04:41:30;;;;;;;1.13;1.00;;;5.80;76.70;;;4.85;63.26;93551.84;6105493;23;20184;-83
2022/02/07 04:44:03;;;;;;;1.17;1.02;;;5.80;76.70;;;4.84;63.35;93565.03;6105225;23;20224;-82
2022/02/07 04:46:57;;;;;;;1.33;1.00;;;5.70;76.70;;;4.73;63.67;93564.53;6108056;23;20178;-83
2022/02/07 04:55:04;;;;;;;1.10;1.10;;;5.60;76.70;;;4.46;64.17;93600.69;6109156;23;20237;-83
2022/02/07 05:00:21;;;;;;;1.00;1.00;;;5.50;77.00;;;4.23;63.85;93616.44;6129935;23;20201;-83
2022/02/07 05:03:05;;;;;;;1.10;1.10;;;5.40;77.00;;;4.11;64.05;93621.34;6088366;23;20178;-82
2022/02/07 05:16:20;;;;;;;1.10;1.10;;;5.00;77.40;;;3.84;65.21;93661.72;6129352;23;20550;-83
2022/02/07 05:18:55;;;;;;;1.38;1.10;;;4.90;77.50;;;3.76;65.48;93673.03;6130039;23;20177;-82
2022/02/07 05:21:35;;;;;;;1.13;1.13;;;4.80;77.60;;;3.68;65.47;93675.69;6129110;23;20212;-85
2022/02/07 05:24:31;;;;;;;1.10;1.00;;;4.80;77.80;;;3.64;65.62;93703.78;6128690;23;20201;-83
2022/02/07 05:27:09;;;;;;;0.80;0.80;;;4.70;77.80;;;3.60;65.82;93702.53;6128567;23;20180;-84
2022/02/07 05:29:53;;;;;;;0.90;0.90;;;4.60;78.00;;;3.51;65.77;93712.16;6126399;23;20216;-83
2022/02/07 05:32:21;;;;;;;0.82;0.82;;;4.60;78.20;;;3.51;65.89;93719.94;6126579;23;20186;-84
2022/02/07 05:35:08;;;;;;;1.00;1.00;;;4.50;78.10;;;3.47;65.95;93720.50;6131231;23;20220;-84
2022/02/07 05:37:54;;;;;;;1.00;1.00;;;4.60;78.30;;;3.42;66.08;93715.84;6110047;23;20179;-85
2022/02/07 05:40:40;;;;;;;0.90;0.90;;;4.50;78.30;;;3.44;66.09;93726.84;6106797;23;20203;-85
2022/02/07 05:43:13;;;;;;;1.05;1.00;;;4.40;78.30;;;3.44;65.90;93750.19;6138328;23;20244;-84
2022/02/07 05:46:20;;;;;;;2.05;1.10;;;4.40;78.30;;;3.41;66.23;93744.53;6004843;23;20189;-82
2022/02/07 05:49:24;;;;;;;1.25;1.15;;;4.40;78.30;;;3.34;66.35;93749.59;5965295;23;20200;-84
2022/02/07 05:52:10;;;;;;;1.17;1.10;;;4.40;78.20;;;3.35;66.07;93756.41;6093964;23;20188;-83
2022/02/07 05:54:40;;;;;;;1.10;1.10;;;4.40;78.30;;;3.34;66.32;93773.75;6127748;23;20236;-84
2022/02/07 05:57:26;;;;;;;1.20;1.20;;;4.40;78.30;;;3.29;66.10;93772.66;6130867;23;20176;-84
2022/02/07 06:00:16;;;;;;;1.20;1.10;;;4.30;78.30;;;3.32;66.20;93803.38;6098104;23;20205;-85
2022/02/07 06:02:44;;;;;;;1.20;1.10;;;4.30;78.60;;;3.33;66.11;93805.00;6151234;23;20183;-85
2022/02/07 06:05:44;;;;;;;1.73;1.15;;;4.30;78.50;;;3.31;66.49;93809.56;6071285;23;20228;-84
2022/02/07 06:08:19;;;;;;;1.38;1.27;;;4.30;78.50;;;3.25;66.64;93815.44;6128446;23;20592;-85
2022/02/07 06:10:47;;;;;;;1.10;1.10;;;4.30;78.60;;;3.25;66.24;93818.03;6104117;23;20224;-83
2022/02/07 06:13:17;;;;;;;1.30;1.20;;;4.30;78.60;;;3.25;66.78;93836.97;6128806;23;20196;-85
2022/02/07 06:15:49;;;;;;;3.30;1.30;;;4.30;78.70;;;3.23;66.73;93851.09;6128183;23;20211;-84
2022/02/07 06:18:18;;;;;;;1.45;1.30;;;4.20;78.70;;;3.20;66.69;93841.88;6080282;23;20679;-84
2022/02/07 06:20:54;;;;;;;2.28;1.20;;;4.20;78.70;;;3.19;66.64;93855.81;6103989;23;20205;-83
2022/02/07 06:23:22;;;;;;;1.50;1.40;;;4.20;78.70;;;3.18;66.30;93856.78;6104385;23;20259;-84
2022/02/07 06:25:51;;;;;;;3.10;1.40;;;4.20;78.70;;;3.17;66.57;93873.31;6082952;23;20200;-84
2022/02/07 06:28:19;;;;;;;2.88;1.30;;;4.10;78.70;;;3.12;67.17;93860.88;6082663;23;20181;-83
2022/02/07 06:30:52;;;;;;;2.10;1.50;;;4.20;79.00;;;3.14;66.48;93861.50;6107965;23;20193;-83
2022/02/07 06:33:20;;;;;;;2.25;1.50;;;4.10;78.80;;;3.13;66.92;93896.16;6083224;23;20243;-84
2022/02/07 06:35:50;;;;;;;1.80;1.70;;;4.10;78.90;;;3.16;66.68;93919.16;6106812;23;20220;-84
2022/02/07 06:38:17;;;;;;;1.50;1.40;;;4.10;78.80;;;3.17;66.74;93915.59;6106115;23;20515;-84
2022/02/07 06:40:44;;;;;;;1.48;1.30;;;4.10;78.80;;;3.19;66.54;93921.38;6106705;23;20252;-84
2022/02/07 06:43:12;;;;;;;1.50;1.40;;;4.10;78.80;;;3.21;66.83;93931.59;6082421;23;20178;-84
2022/02/07 06:45:41;;;;;;;1.40;1.30;;;4.10;78.90;;;3.22;66.87;93945.34;6106543;23;20521;-84
2022/02/07 06:48:08;;;;;;;3.05;1.27;;;4.20;78.90;;;3.25;66.73;93945.00;6106569;23;20177;-84
2022/02/07 06:50:38;;;;;;;2.28;1.45;;;4.20;78.90;;;3.22;66.74;93950.53;6131420;23;20205;-83
2022/02/07 06:53:06;;;;;;;2.42;1.30;;;4.20;78.90;;;3.22;66.47;93953.13;6106597;23;20177;-84
2022/02/07 06:55:35;;;;;;;2.15;1.48;;;4.20;78.90;;;3.21;66.44;93970.47;6082784;23;20297;-83
2022/02/07 06:58:05;;;;;;;1.60;1.50;;;4.20;78.80;;;3.26;66.44;93969.94;6106361;23;20188;-81
2022/02/07 07:00:33;;;;;;;1.70;1.60;;;4.20;78.80;;;3.27;66.46;93990.53;6105899;23;20197;-81
2022/02/07 07:03:02;;;;;;;2.63;1.40;;;4.20;78.80;;;3.25;66.30;93978.69;6106244;23;20553;-81
2022/02/07 07:05:31;;;;;;;1.70;1.60;;;4.20;78.80;;;3.28;66.76;94015.44;6129472;23;20346;-80
2022/02/07 07:08:01;;;;;;;1.90;1.70;;;4.20;78.90;;;3.28;66.42;93996.50;6130954;23;20178;-81
2022/02/07 07:10:29;;;;;;;1.50;1.40;;;4.20;78.80;;;3.32;66.06;93995.16;6105246;23;20666;-81
2022/02/07 07:13:09;;;;;;;3.53;1.50;;;4.20;78.80;;;3.32;65.98;94008.97;6129493;23;20200;-79
2022/02/07 07:16:37;;;;;;;1.98;1.40;;;4.20;78.60;;;3.34;65.70;94029.50;6130511;23;20216;-82
2022/02/07 07:18:30;;;;;;;2.97;1.50;;;4.20;78.60;;;3.35;65.70;94044.88;6100679;23;20205;-80
2022/02/07 07:20:58;;;;;;;3.17;1.60;;;4.30;78.50;;;3.34;65.40;94026.91;6107660;23;20198;-80
2022/02/07 07:23:25;;;;;;;1.40;1.30;;;4.30;78.40;;;3.34;65.25;94058.84;6109922;23;20177;-81
2022/02/07 07:25:57;;;;;;;2.10;1.30;;;4.30;78.30;;;3.39;64.91;94049.75;6084775;23;20193;-81
2022/02/07 07:28:26;;;;;;;3.00;1.50;;;4.30;78.20;;;3.38;64.57;94063.69;6106147;23;20182;-81
2022/02/07 07:30:57;;;;;;;1.85;1.30;;;4.30;78.10;;;3.35;64.32;94062.25;6105350;23;20197;-81
2022/02/07 07:33:33;;;;;;;2.63;1.20;;;4.30;77.90;;;3.34;64.35;94064.03;6107444;23;20180;-81
2022/02/07 07:36:03;;;;;;;2.50;1.50;;;4.30;77.90;;;3.29;64.13;94066.28;6129819;23;20745;-80
2022/02/07 07:38:32;;;;;;;2.38;1.40;;;4.30;77.70;;;3.33;63.83;94083.16;6105658;23;20176;-81
2022/02/07 07:41:01;;;;;;;2.22;1.40;;;4.20;77.50;;;3.33;63.84;94092.69;6106668;23;20189;-81
2022/02/07 07:43:37;;;;;;;2.75;1.20;;;4.20;77.40;;;3.28;63.75;94095.78;6108440;23;20153;-79
2022/02/07 07:46:20;;;;;;;2.65;1.35;;;4.20;77.30;;;3.31;63.40;94115.41;6132908;23;20212;-81
2022/02/07 07:49:10;;;;;;;1.73;1.40;;;4.20;77.20;;;3.27;63.04;94111.50;6119543;23;20509;-81
2022/02/07 07:51:49;;;;;;;2.72;1.25;;;4.20;77.00;;;3.24;62.93;94122.22;6131573;23;20174;-81
2022/02/07 07:54:53;;;;;;;2.17;1.20;;;4.10;76.80;;;3.23;63.32;94138.72;6115475;23;20260;-81
2022/02/07 08:03:04;;;;;;;1.38;1.27;;;4.10;76.80;;;3.22;62.92;94148.28;6135433;23;20158;-81
2022/02/07 08:05:45;;;;;;;1.83;1.30;;;4.10;76.80;;;3.24;62.67;94141.16;6129613;23;20213;-80
2022/02/07 08:08:27;;;;;;;2.28;1.15;;;4.10;76.60;;;3.25;62.73;94147.13;6108348;23;20170;-82
2022/02/07 08:11:07;;;;;;;2.90;1.00;;;4.10;76.70;;;3.29;62.35;94153.63;6107344;23;20666;-83
2022/02/07 08:13:41;;;;;;;2.90;1.40;;;4.20;76.70;;;3.27;61.92;94164.16;6129182;23;20208;-83
2022/02/07 08:16:14;;;;;;;3.17;1.30;;;4.10;76.30;;;3.17;61.78;94164.34;6105640;23;20201;-83
2022/02/07 08:18:41;;;;;;;1.73;1.45;;;4.10;76.20;;;3.23;61.93;94181.00;6129143;23;20181;-85
2022/02/07 08:21:09;;;;;;;1.40;1.30;;;4.10;76.30;;;3.27;62.13;94199.63;6104948;23;20177;-84
2022/02/07 08:23:39;;;;;;;5.18;1.40;;;4.10;76.40;;;3.28;61.83;94186.47;6106180;23;20166;-84
2022/02/07 08:26:08;;;;;;;3.60;1.40;;;4.10;76.40;;;3.31;61.34;94190.56;6129515;23;20173;-83
2022/02/07 08:28:47;;;;;;;3.00;1.40;;;4.10;76.30;;;3.36;61.65;94180.50;6132455;23;20256;-83
2022/02/07 08:31:17;;;;;;;1.30;1.20;;;4.10;76.30;;;3.40;61.55;94186.97;6105581;23;20169;-82
2022/02/07 08:33:46;;;;;;;1.02;1.02;;;4.10;76.30;;;3.45;61.32;94184.66;6129857;23;20500;-80
2022/02/07 08:36:16;;;;;;;2.50;1.20;;;4.10;76.10;;;3.53;61.40;94195.03;6105230;23;20202;-82
2022/02/07 08:38:44;;;;;;;1.35;1.20;;;4.20;76.40;;;3.61;61.00;94206.34;6129668;23;20169;-81
2022/02/07 08:41:11;;;;;;;1.17;1.17;;;4.20;76.10;;;3.59;60.40;94200.50;6126712;23;20243;-81
2022/02/07 08:43:38;;;;;;;1.45;1.00;;;4.30;76.10;;;3.61;60.77;94194.19;6102468;23;20224;-82
2022/02/07 08:46:06;;;;;;;2.88;1.10;;;4.30;76.00;;;3.63;60.53;94188.84;6126267;23;20170;-81
2022/02/07 08:48:34;;;;;;;2.90;1.58;;;4.40;76.00;;;3.66;60.71;94212.66;6126212;23;20189;-81
2022/02/07 08:51:04;;;;;;;1.40;1.30;;;4.40;75.80;;;3.69;60.86;94214.91;6126784;23;20189;-83
2022/02/07 08:53:37;;;;;;;1.23;1.13;;;4.40;75.90;;;3.67;60.98;94216.88;6102210;23;20185;-80
2022/02/07 08:56:05;;;;;;;1.50;1.30;;;4.40;75.70;;;3.69;60.41;94219.31;6101332;23;20209;-80
2022/02/07 08:58:35;;;;;;;1.45;1.35;;;4.50;75.60;;;3.67;60.60;94223.84;6101679;23;20188;-81
2022/02/07 09:01:28;;;;;;;2.20;1.38;;;4.50;76.40;;;3.67;60.89;94224.66;6078624;23;20240;-82
2022/02/07 09:04:29;;;;;;;1.48;1.20;;;4.50;75.70;;;3.64;61.00;94226.78;6150208;23;20174;-81
2022/02/07 09:06:59;;;;;;;2.10;1.30;;;4.60;75.80;;;3.64;60.86;94227.56;6106020;23;20244;-80
2022/02/07 09:09:26;;;;;;;1.35;1.20;;;4.50;75.70;;;3.65;60.81;94231.78;6126532;23;20201;-80
2022/02/07 09:11:55;;;;;;;2.80;1.52;;;4.50;75.70;;;3.66;61.18;94219.63;6101538;23;20181;-81
2022/02/07 09:14:29;;;;;;;3.25;1.30;;;4.50;75.80;;;3.72;61.49;94226.75;6103684;23;20197;-81
2022/02/07 09:16:58;;;;;;;3.53;1.17;;;4.50;76.00;;;3.75;61.53;94235.97;6126108;23;20217;-81
2022/02/07 09:19:26;;;;;;;3.00;1.23;;;4.50;76.10;;;3.73;62.03;94238.72;6102522;23;20648;-82
2022/02/07 09:21:53;;;;;;;1.73;1.35;;;4.50;77.00;;;3.68;61.75;94243.63;6100630;23;20209;-81
2022/02/07 09:24:20;;;;;;;3.63;1.40;;;4.60;76.30;;;3.62;62.58;94254.66;6125529;23;20203;-84
2022/02/07 09:26:48;;;;;;;3.00;1.50;;;4.50;76.40;;;3.59;63.37;94268.75;6101995;23;20187;-82
2022/02/07 09:29:16;;;;;;;2.13;1.30;;;4.50;76.70;;;3.57;62.85;94282.88;6126372;23;20197;-83
2022/02/07 09:31:43;;;;;;;3.05;1.20;;;4.50;76.80;;;3.52;63.40;94291.13;6101868;23;20181;-83
2022/02/07 09:34:10;;;;;;;2.53;1.30;;;4.50;76.90;;;3.49;63.58;94273.28;6102023;23;20239;-83
2022/02/07 09:36:38;;;;;;;1.90;1.38;;;4.40;77.10;;;3.60;64.47;94292.91;6104015;23;20660;-84
2022/02/07 09:39:06;;;;;;;1.65;1.30;;;4.40;77.50;;;3.69;64.02;94299.69;6153438;23;20189;-82
2022/02/07 09:41:34;;;;;;;1.75;1.30;;;4.40;77.70;;;3.72;64.20;94308.94;6128773;23;20166;-83
2022/02/07 09:44:03;;;;;;;2.15;1.40;;;4.40;77.70;;;3.72;64.27;94321.91;6128030;23;20197;-83
2022/02/07 09:49:13;;;;;;;2.00;1.30;;;4.40;77.70;;;3.78;63.99;94316.84;6132032;23;20265;-83
2022/02/07 09:51:43;;;;;;;1.83;1.30;;;4.40;77.70;;;3.84;64.17;94324.00;6105099;23;20236;-83
2022/02/07 09:54:16;;;;;;;1.60;1.50;;;4.50;77.80;;;3.87;63.41;94335.84;6130219;23;20501;-82
2022/02/07 09:56:45;;;;;;;2.10;1.40;;;4.50;77.70;;;3.82;63.66;94322.53;6103326;23;20223;-82
2022/02/07 09:59:15;;;;;;;2.03;1.40;;;4.60;77.80;;;3.92;63.63;94323.16;6104529;23;20205;-83
2022/02/07 10:01:50;;;;;;;2.35;1.30;;;4.60;77.70;;;3.94;63.92;94338.56;6127697;23;20628;-83
2022/02/07 10:04:29;;;;;;;2.35;1.40;;;4.70;77.70;;;3.91;63.24;94341.50;6102062;23;20279;-83
2022/02/07 10:07:06;;;;;;;1.52;1.38;;;4.70;77.60;;;3.90;63.70;94358.84;6103369;23;20185;-83
2022/02/07 10:14:42;;;;;;;2.05;1.38;;;4.70;77.40;;;3.85;63.57;94374.88;6126511;23;20261;-83
2022/02/07 10:20:58;;;;;;;2.13;1.48;;;4.70;77.30;;;3.76;63.06;94355.13;6103998;23;20193;-82
2022/02/07 10:40:37;;;;;;;2.72;1.55;;;4.60;76.60;;;3.65;62.90;94396.94;6127625;23;20248;-82
2022/02/07 10:46:17;;;;;;;2.22;1.30;;;4.50;76.70;;;3.75;62.77;94389.00;6127905;23;20228;-83
2022/02/07 10:48:53;;;;;;;4.20;1.63;;;4.50;76.70;;;3.80;62.51;94379.75;6151153;23;20165;-84
2022/02/07 10:51:22;;;;;;;2.50;1.35;;;4.50;76.60;;;3.84;62.50;94369.88;6101667;23;20170;-83
2022/02/07 10:53:59;;;;;;;3.35;1.50;;;4.50;76.80;;;3.87;62.82;94390.31;6125851;23;20177;-84
2022/02/07 10:56:44;;;;;;;2.85;1.70;;;4.60;76.90;;;3.92;62.53;94369.03;6151638;23;20606;-83
2022/02/07 10:59:16;;;;;;;1.55;1.45;;;4.70;76.80;;;3.98;62.78;94374.41;6126016;23;20202;-83
2022/02/07 11:04:26;;;;;;;2.88;1.58;;;4.60;76.90;;;4.06;62.56;94380.56;6125001;23;20648;-82
2022/02/07 11:06:59;;;;;;;4.10;1.55;;;4.70;76.90;;;4.07;62.33;94379.59;6128122;23;20240;-82
2022/02/07 11:12:45;;;;;;;2.67;1.88;;;4.80;77.00;;;3.93;62.39;94412.19;6064937;23;20240;-84
2022/02/07 11:15:35;;;;;;;3.75;1.60;;;4.70;77.10;;;3.82;62.60;94408.97;6107577;23;20201;-83
2022/02/07 11:18:24;;;;;;;2.08;1.40;;;4.70;77.00;;;3.73;63.54;94399.53;6152611;23;20623;-83
2022/02/07 11:24:51;;;;;;;2.88;1.23;;;4.60;77.60;;;3.55;63.77;94399.69;6036034;23;20193;-84
2022/02/07 11:27:49;;;;;;;5.35;1.73;;;4.50;77.60;;;3.55;63.76;94417.84;6111169;23;20177;-85
2022/02/07 11:30:42;;;;;;;3.08;1.58;;;4.50;77.80;;;3.57;63.79;94431.47;6130657;23;20201;-82
2022/02/07 11:33:31;;;;;;;2.47;1.30;;;4.40;77.80;;;3.58;64.00;94430.50;6129805;23;20236;-81
2022/02/07 11:35:59;;;;;;;2.75;1.60;;;4.40;77.90;;;3.61;64.09;94445.72;6129758;23;20204;-81
2022/02/07 11:38:27;;;;;;;2.50;1.40;;;4.40;77.80;;;3.59;64.00;94447.69;6105575;23;20232;-81
2022/02/07 11:41:06;;;;;;;2.88;1.40;;;4.50;78.00;;;3.55;64.05;94443.78;6105161;23;20248;-81
2022/02/07 11:43:39;;;;;;;3.35;1.50;;;4.40;78.00;;;3.56;64.24;94473.13;6106410;23;20158;-81
2022/02/07 11:46:10;;;;;;;4.13;1.60;;;4.40;77.90;;;3.56;64.55;94466.16;6105831;23;20517;-81
2022/02/07 11:48:50;;;;;;;1.85;1.40;;;4.40;78.00;;;3.51;64.39;94471.00;6129711;23;20177;-82
2022/02/07 11:51:25;;;;;;;2.47;1.50;;;4.40;78.10;;;3.51;64.31;94479.56;6129998;23;20519;-81
2022/02/07 11:54:00;;;;;;;1.60;1.50;;;4.30;78.00;;;3.53;64.42;94490.63;6129936;23;20169;-82
2022/02/07 11:56:49;;;;;;;3.95;1.75;;;4.30;78.20;;;3.56;64.47;94479.09;6130113;23;20397;-82
2022/02/07 11:59:38;;;;;;;5.63;1.60;;;4.30;78.20;;;3.63;64.81;94481.88;6105485;23;20193;-83
2022/02/07 12:02:15;;;;;;;4.32;1.70;;;4.30;78.40;;;3.62;64.41;94485.44;6130207;23;20170;-81
2022/02/07 12:04:48;;;;;;;2.65;1.90;;;4.30;78.40;;;3.72;64.59;94500.88;6083190;23;20204;-80
2022/02/07 12:07:15;;;;;;;3.08;1.77;;;4.40;78.40;;;3.80;64.17;94513.84;6130207;23;20542;-81
2022/02/07 12:10:03;;;;;;;2.47;1.52;;;4.30;78.40;;;3.87;64.40;94517.44;6104657;23;20232;-80
2022/02/07 12:15:16;;;;;;;3.60;1.70;;;4.40;79.10;;;3.93;64.02;94528.94;6129696;23;20252;-81
2022/02/07 12:17:49;;;;;;;2.75;1.40;;;4.50;77.90;;;3.97;63.76;94530.25;6128320;23;20231;-80
2022/02/07 12:20:20;;;;;;;3.63;1.70;;;4.50;78.10;;;3.99;63.89;94529.13;6129459;23;20196;-81
2022/02/07 12:23:06;;;;;;;1.67;1.55;;;4.60;78.90;;;4.06;63.88;94544.84;6129775;23;20162;-80
2022/02/07 12:25:43;;;;;;;2.53;1.60;;;4.60;78.10;;;4.19;64.10;94549.56;6130009;23;20199;-81
2022/02/07 12:34:12;;;;;;;3.20;1.60;;;4.80;77.90;;;4.75;63.35;94552.31;6128940;23;20204;-81
2022/02/07 12:36:40;;;;;;;1.88;1.30;;;5.00;78.30;;;4.89;62.73;94556.00;6129822;23;20202;-81
2022/02/07 12:39:13;;;;;;;1.85;1.55;;;5.10;77.80;;;4.97;62.67;94569.00;6105100;23;20202;-81
2022/02/07 12:41:44;;;;;;;3.13;1.67;;;5.20;77.30;;;4.99;61.65;94547.25;6128843;23;20228;-81
2022/02/07 12:44:19;;;;;;;2.00;1.60;;;5.30;76.40;;;5.03;61.43;94574.50;6105239;23;20197;-83
2022/02/07 12:46:47;;;;;;;2.17;1.70;;;5.40;76.50;;;4.95;60.87;94578.75;6106161;23;20173;-85
2022/02/07 12:49:22;;;;;;;1.98;1.52;;;5.30;75.00;;;4.90;60.79;94581.03;6105696;23;20201;-84
2022/02/07 12:51:49;;;;;;;3.13;1.65;;;5.40;75.00;;;4.89;60.17;94583.81;6130107;23;20628;-84
2022/02/07 12:54:21;;;;;;;4.25;1.60;;;5.30;75.10;;;4.88;60.55;94576.97;6105706;23;20198;-83
2022/02/07 12:56:50;;;;;;;3.28;1.48;;;5.40;75.10;;;4.83;61.10;94579.25;6129708;23;20628;-86
2022/02/07 12:59:18;;;;;;;2.78;1.50;;;5.40;75.80;;;4.90;60.47;94588.03;6129574;23;20204;-83
2022/02/07 13:01:47;;;;;;;3.30;1.55;;;5.40;75.60;;;4.92;60.79;94593.84;6129202;23;20180;-85
2022/02/07 13:04:20;;;;;;;3.47;1.95;;;5.40;75.60;;;4.90;60.35;94599.22;6106146;23;20204;-85
2022/02/07 13:06:55;;;;;;;5.28;1.80;;;5.40;75.30;;;4.87;60.41;94599.56;6130563;23;20177;-83
2022/02/07 13:09:29;;;;;;;2.85;1.40;;;5.40;75.20;;;4.89;60.86;94594.19;6130160;23;20226;-85
2022/02/07 13:14:42;;;;;;;1.92;1.52;;;5.50;75.40;;;4.87;60.88;94606.53;6129140;23;20197;-84
2022/02/07 13:17:11;;;;;;;6.97;1.67;;;5.50;76.10;;;4.89;60.62;94604.59;6153841;23;20208;-84
2022/02/07 13:19:43;;;;;;;3.88;1.60;;;5.50;75.50;;;4.95;60.75;94616.94;6129243;23;20204;-84
2022/02/07 13:22:15;;;;;;;5.55;1.80;;;5.50;75.40;;;4.89;60.36;94620.97;6129934;23;20168;-85
2022/02/07 13:24:44;;;;;;;2.17;1.50;;;5.50;75.00;;;4.89;60.39;94627.97;6129751;23;20208;-85
2022/02/07 13:27:15;;;;;;;6.05;1.92;;;5.50;75.10;;;4.79;60.49;94626.34;6105471;23;20182;-85
2022/02/07 13:29:49;;;;;;;6.57;1.98;;;5.50;75.40;;;4.79;60.95;94639.34;6129719;23;20197;-84
2022/02/07 13:32:26;;;;;;;6.47;2.03;;;5.50;75.30;;;4.72;60.95;94638.38;6128878;23;20176;-84